sensor_id;sensor_type;location;lat;lon;timestamp;temperature;humidity
56725;DHT22;42608;52.776;6.968;2024-03-02T00:01:16;7.40;99.90
56725;DHT22;42608;52.776;6.968;2024-03-02T00:03:42;7.40;99.90
56725;DHT22;42608;52.776;6.968;2024-03-02T00:06:08;7.40;99.90
56725;DHT22;42608;52.776;6.968;2024-03-02T00:08:36;7.30;99.90
56725;DHT22;42608;52.776;6.968;2024-03-02T00:11:02;7.40;99.90
56725;DHT22;42608;52.776;6.968;2024-03-02T00:13:31;7.40;99.90
56725;DHT22;42608;52.776;6.968;2024-03-02T00:15:57;7.30;99.90
56725;DHT22;42608;52.776;6.968;2024-03-02T00:18:27;7.40;99.90
56725;DHT22;42608;52.776;6.968;2024-03-02T00:20:56;7.30;99.90
56725;DHT22;42608;52.776;6.968;2024-03-02T00:23:22;7.30;99.90
56725;DHT22;42608;52.776;6.968;2024-03-02T00:25:48;7.40;99.90
56725;DHT22;42608;52.776;6.968;2024-03-02T00:33:22;7.30;99.90
56725;DHT22;42608;52.776;6.968;2024-03-02T00:35:49;7.40;99.90
56725;DHT22;42608;52.776;6.968;2024-03-02T00:38:15;7.40;99.90
56725;DHT22;42608;52.776;6.968;2024-03-02T00:40:44;7.30;99.90
56725;DHT22;42608;52.776;6.968;2024-03-02T00:45:54;7.40;99.90
56725;DHT22;42608;52.776;6.968;2024-03-02T00:48:19;7.40;99.90
56725;DHT22;42608;52.776;6.968;2024-03-02T00:50:52;7.40;99.90
56725;DHT22;42608;52.776;6.968;2024-03-02T00:53:17;7.40;99.90
56725;DHT22;42608;52.776;6.968;2024-03-02T00:55:49;7.40;99.90
56725;DHT22;42608;52.776;6.968;2024-03-02T00:58:14;7.40;99.90
56725;DHT22;42608;52.776;6.968;2024-03-02T01:00:40;7.50;99.90
56725;DHT22;42608;52.776;6.968;2024-03-02T01:03:05;7.50;99.90
56725;DHT22;42608;52.776;6.968;2024-03-02T01:05:31;7.50;99.90
56725;DHT22;42608;52.776;6.968;2024-03-02T01:07:56;7.50;99.90
56725;DHT22;42608;52.776;6.968;2024-03-02T01:10:22;7.50;99.90
56725;DHT22;42608;52.776;6.968;2024-03-02T01:12:47;7.50;99.90
56725;DHT22;42608;52.776;6.968;2024-03-02T01:15:13;7.50;99.90
56725;DHT22;42608;52.776;6.968;2024-03-02T01:17:39;7.50;99.90
56725;DHT22;42608;52.776;6.968;2024-03-02T01:20:04;7.50;99.90
56725;DHT22;42608;52.776;6.968;2024-03-02T01:22:33;7.60;99.90
56725;DHT22;42608;52.776;6.968;2024-03-02T01:24:58;7.60;99.90
56725;DHT22;42608;52.776;6.968;2024-03-02T01:27:27;7.60;99.90
56725;DHT22;42608;52.776;6.968;2024-03-02T01:29:59;7.60;99.90
56725;DHT22;42608;52.776;6.968;2024-03-02T01:32:25;7.60;99.90
56725;DHT22;42608;52.776;6.968;2024-03-02T01:34:50;7.60;99.90
56725;DHT22;42608;52.776;6.968;2024-03-02T01:37:19;7.60;99.90
56725;DHT22;42608;52.776;6.968;2024-03-02T01:39:47;7.60;99.90
56725;DHT22;42608;52.776;6.968;2024-03-02T01:42:13;7.60;99.90
56725;DHT22;42608;52.776;6.968;2024-03-02T01:44:39;7.70;99.90
56725;DHT22;42608;52.776;6.968;2024-03-02T01:47:05;7.70;99.90
56725;DHT22;42608;52.776;6.968;2024-03-02T01:49:30;7.70;99.90
56725;DHT22;42608;52.776;6.968;2024-03-02T01:51:56;7.70;99.90
56725;DHT22;42608;52.776;6.968;2024-03-02T01:54:24;7.70;99.90
56725;DHT22;42608;52.776;6.968;2024-03-02T01:56:50;7.70;99.90
56725;DHT22;42608;52.776;6.968;2024-03-02T01:59:15;7.70;99.90
56725;DHT22;42608;52.776;6.968;2024-03-02T02:01:41;7.70;99.90
56725;DHT22;42608;52.776;6.968;2024-03-02T02:04:06;7.70;99.90
56725;DHT22;42608;52.776;6.968;2024-03-02T02:06:32;7.80;99.90
56725;DHT22;42608;52.776;6.968;2024-03-02T02:08:58;7.80;99.90
56725;DHT22;42608;52.776;6.968;2024-03-02T02:11:24;7.80;99.90
56725;DHT22;42608;52.776;6.968;2024-03-02T02:13:50;7.80;99.90
56725;DHT22;42608;52.776;6.968;2024-03-02T02:16:15;7.80;99.90
56725;DHT22;42608;52.776;6.968;2024-03-02T02:18:41;7.80;99.90
56725;DHT22;42608;52.776;6.968;2024-03-02T02:21:06;7.80;99.90
56725;DHT22;42608;52.776;6.968;2024-03-02T02:23:32;7.80;99.90
56725;DHT22;42608;52.776;6.968;2024-03-02T02:25:58;7.90;99.90
56725;DHT22;42608;52.776;6.968;2024-03-02T02:28:26;7.90;99.90
56725;DHT22;42608;52.776;6.968;2024-03-02T02:30:55;7.80;99.90
56725;DHT22;42608;52.776;6.968;2024-03-02T02:33:23;7.80;99.90
56725;DHT22;42608;52.776;6.968;2024-03-02T02:35:48;7.90;99.90
56725;DHT22;42608;52.776;6.968;2024-03-02T02:38:14;7.80;99.90
56725;DHT22;42608;52.776;6.968;2024-03-02T02:40:39;7.90;99.90
56725;DHT22;42608;52.776;6.968;2024-03-02T02:43:05;7.80;99.90
56725;DHT22;42608;52.776;6.968;2024-03-02T02:45:32;7.80;99.90
56725;DHT22;42608;52.776;6.968;2024-03-02T02:47:57;7.80;99.90
56725;DHT22;42608;52.776;6.968;2024-03-02T02:50:23;7.80;99.90
56725;DHT22;42608;52.776;6.968;2024-03-02T02:52:48;7.80;99.90
56725;DHT22;42608;52.776;6.968;2024-03-02T02:55:15;7.80;99.90
56725;DHT22;42608;52.776;6.968;2024-03-02T02:57:41;7.80;99.90
56725;DHT22;42608;52.776;6.968;2024-03-02T03:00:08;7.80;99.90
56725;DHT22;42608;52.776;6.968;2024-03-02T03:02:40;7.80;99.90
56725;DHT22;42608;52.776;6.968;2024-03-02T03:05:07;7.80;99.90
56725;DHT22;42608;52.776;6.968;2024-03-02T03:07:33;7.80;99.90
56725;DHT22;42608;52.776;6.968;2024-03-02T03:10:00;7.80;99.90
56725;DHT22;42608;52.776;6.968;2024-03-02T03:12:26;7.80;99.90
56725;DHT22;42608;52.776;6.968;2024-03-02T03:14:52;7.90;99.90
56725;DHT22;42608;52.776;6.968;2024-03-02T03:17:17;7.90;99.90
56725;DHT22;42608;52.776;6.968;2024-03-02T03:19:43;7.90;99.90
56725;DHT22;42608;52.776;6.968;2024-03-02T03:22:09;7.90;99.90
56725;DHT22;42608;52.776;6.968;2024-03-02T03:24:34;7.90;99.90
56725;DHT22;42608;52.776;6.968;2024-03-02T03:27:00;7.90;99.90
56725;DHT22;42608;52.776;6.968;2024-03-02T03:29:26;7.90;99.90
56725;DHT22;42608;52.776;6.968;2024-03-02T03:31:57;7.90;99.90
56725;DHT22;42608;52.776;6.968;2024-03-02T03:34:23;7.90;99.90
56725;DHT22;42608;52.776;6.968;2024-03-02T03:36:48;7.90;99.90
56725;DHT22;42608;52.776;6.968;2024-03-02T03:39:14;7.90;99.90
56725;DHT22;42608;52.776;6.968;2024-03-02T03:41:42;7.90;99.90
56725;DHT22;42608;52.776;6.968;2024-03-02T03:44:08;8.00;99.90
56725;DHT22;42608;52.776;6.968;2024-03-02T03:46:33;7.90;99.90
56725;DHT22;42608;52.776;6.968;2024-03-02T03:49:02;8.00;99.90
56725;DHT22;42608;52.776;6.968;2024-03-02T03:51:29;8.00;99.90
56725;DHT22;42608;52.776;6.968;2024-03-02T03:53:55;8.00;99.90
56725;DHT22;42608;52.776;6.968;2024-03-02T03:56:21;8.00;99.90
56725;DHT22;42608;52.776;6.968;2024-03-02T03:58:47;8.00;99.90
56725;DHT22;42608;52.776;6.968;2024-03-02T04:01:12;7.90;99.90
56725;DHT22;42608;52.776;6.968;2024-03-02T04:03:38;7.90;99.90
56725;DHT22;42608;52.776;6.968;2024-03-02T04:06:03;7.90;99.90
56725;DHT22;42608;52.776;6.968;2024-03-02T04:08:29;7.90;99.90
56725;DHT22;42608;52.776;6.968;2024-03-02T04:10:55;7.90;99.90
56725;DHT22;42608;52.776;6.968;2024-03-02T04:13:20;7.80;99.90
56725;DHT22;42608;52.776;6.968;2024-03-02T04:15:46;7.80;99.90
56725;DHT22;42608;52.776;6.968;2024-03-02T04:18:11;7.90;99.90
56725;DHT22;42608;52.776;6.968;2024-03-02T04:20:37;7.80;99.90
56725;DHT22;42608;52.776;6.968;2024-03-02T04:23:02;7.80;99.90
56725;DHT22;42608;52.776;6.968;2024-03-02T04:25:28;7.80;99.90
56725;DHT22;42608;52.776;6.968;2024-03-02T04:27:54;7.70;99.90
56725;DHT22;42608;52.776;6.968;2024-03-02T04:30:19;7.70;99.90
56725;DHT22;42608;52.776;6.968;2024-03-02T04:32:45;7.60;99.90
56725;DHT22;42608;52.776;6.968;2024-03-02T04:35:15;7.60;99.90
56725;DHT22;42608;52.776;6.968;2024-03-02T04:37:40;7.60;99.90
56725;DHT22;42608;52.776;6.968;2024-03-02T04:40:09;7.60;99.90
56725;DHT22;42608;52.776;6.968;2024-03-02T04:42:35;7.60;99.90
56725;DHT22;42608;52.776;6.968;2024-03-02T04:45:03;7.50;99.90
56725;DHT22;42608;52.776;6.968;2024-03-02T04:47:29;7.50;99.90
56725;DHT22;42608;52.776;6.968;2024-03-02T04:49:55;7.50;99.90
56725;DHT22;42608;52.776;6.968;2024-03-02T04:52:20;7.50;99.90
56725;DHT22;42608;52.776;6.968;2024-03-02T04:54:46;7.50;99.90
56725;DHT22;42608;52.776;6.968;2024-03-02T04:57:30;7.50;99.90
56725;DHT22;42608;52.776;6.968;2024-03-02T04:59:55;7.50;99.90
56725;DHT22;42608;52.776;6.968;2024-03-02T05:02:21;7.50;99.90
56725;DHT22;42608;52.776;6.968;2024-03-02T05:04:46;7.50;99.90
56725;DHT22;42608;52.776;6.968;2024-03-02T05:07:15;7.40;99.90
56725;DHT22;42608;52.776;6.968;2024-03-02T05:09:41;7.40;99.90
56725;DHT22;42608;52.776;6.968;2024-03-02T05:12:07;7.40;99.90
56725;DHT22;42608;52.776;6.968;2024-03-02T05:14:51;7.40;99.90
56725;DHT22;42608;52.776;6.968;2024-03-02T05:17:17;7.40;99.90
56725;DHT22;42608;52.776;6.968;2024-03-02T05:19:44;7.40;99.90
56725;DHT22;42608;52.776;6.968;2024-03-02T05:22:12;7.40;99.90
56725;DHT22;42608;52.776;6.968;2024-03-02T05:24:37;7.30;99.90
56725;DHT22;42608;52.776;6.968;2024-03-02T05:27:03;7.30;99.90
56725;DHT22;42608;52.776;6.968;2024-03-02T05:29:28;7.30;99.90
56725;DHT22;42608;52.776;6.968;2024-03-02T05:31:54;7.30;99.90
56725;DHT22;42608;52.776;6.968;2024-03-02T05:34:23;7.30;99.90
56725;DHT22;42608;52.776;6.968;2024-03-02T05:36:48;7.30;99.90
56725;DHT22;42608;52.776;6.968;2024-03-02T05:39:14;7.30;99.90
56725;DHT22;42608;52.776;6.968;2024-03-02T05:41:39;7.30;99.90
56725;DHT22;42608;52.776;6.968;2024-03-02T05:44:08;7.30;99.90
56725;DHT22;42608;52.776;6.968;2024-03-02T05:46:33;7.30;99.90
56725;DHT22;42608;52.776;6.968;2024-03-02T05:49:02;7.30;99.90
56725;DHT22;42608;52.776;6.968;2024-03-02T05:51:27;7.30;99.90
56725;DHT22;42608;52.776;6.968;2024-03-02T05:53:53;7.20;99.90
56725;DHT22;42608;52.776;6.968;2024-03-02T05:56:18;7.20;99.90
56725;DHT22;42608;52.776;6.968;2024-03-02T05:58:44;7.20;99.90
56725;DHT22;42608;52.776;6.968;2024-03-02T06:01:33;7.20;99.90
56725;DHT22;42608;52.776;6.968;2024-03-02T06:04:01;7.20;99.90
56725;DHT22;42608;52.776;6.968;2024-03-02T06:06:27;7.20;99.90
56725;DHT22;42608;52.776;6.968;2024-03-02T06:08:53;7.20;99.90
56725;DHT22;42608;52.776;6.968;2024-03-02T06:11:21;7.20;99.90
56725;DHT22;42608;52.776;6.968;2024-03-02T06:13:50;7.10;99.90
56725;DHT22;42608;52.776;6.968;2024-03-02T06:16:15;7.10;99.90
56725;DHT22;42608;52.776;6.968;2024-03-02T06:18:41;7.10;99.90
56725;DHT22;42608;52.776;6.968;2024-03-02T06:21:06;7.10;99.90
56725;DHT22;42608;52.776;6.968;2024-03-02T06:23:32;7.00;99.90
56725;DHT22;42608;52.776;6.968;2024-03-02T06:25:57;7.00;99.90
56725;DHT22;42608;52.776;6.968;2024-03-02T06:28:23;7.10;99.90
56725;DHT22;42608;52.776;6.968;2024-03-02T06:30:49;7.10;99.90
56725;DHT22;42608;52.776;6.968;2024-03-02T06:33:17;7.10;99.90
56725;DHT22;42608;52.776;6.968;2024-03-02T06:35:42;7.10;99.90
56725;DHT22;42608;52.776;6.968;2024-03-02T06:38:08;7.10;99.90
56725;DHT22;42608;52.776;6.968;2024-03-02T06:40:34;7.20;99.90
56725;DHT22;42608;52.776;6.968;2024-03-02T06:42:59;7.20;99.90
56725;DHT22;42608;52.776;6.968;2024-03-02T06:45:25;7.20;99.90
56725;DHT22;42608;52.776;6.968;2024-03-02T06:47:50;7.20;99.90
56725;DHT22;42608;52.776;6.968;2024-03-02T06:50:16;7.20;99.90
56725;DHT22;42608;52.776;6.968;2024-03-02T06:52:41;7.20;99.90
56725;DHT22;42608;52.776;6.968;2024-03-02T06:55:07;7.20;99.90
56725;DHT22;42608;52.776;6.968;2024-03-02T06:57:33;7.20;99.90
56725;DHT22;42608;52.776;6.968;2024-03-02T07:00:04;7.20;99.90
56725;DHT22;42608;52.776;6.968;2024-03-02T07:02:33;7.20;99.90
56725;DHT22;42608;52.776;6.968;2024-03-02T07:04:59;7.20;99.90
56725;DHT22;42608;52.776;6.968;2024-03-02T07:07:27;7.20;99.90
56725;DHT22;42608;52.776;6.968;2024-03-02T07:09:53;7.30;99.90
56725;DHT22;42608;52.776;6.968;2024-03-02T07:12:18;7.30;99.90
56725;DHT22;42608;52.776;6.968;2024-03-02T07:14:44;7.30;99.90
56725;DHT22;42608;52.776;6.968;2024-03-02T07:17:22;7.30;99.90
56725;DHT22;42608;52.776;6.968;2024-03-02T07:19:47;7.30;99.90
56725;DHT22;42608;52.776;6.968;2024-03-02T07:22:13;7.30;99.90
56725;DHT22;42608;52.776;6.968;2024-03-02T07:24:39;7.30;99.90
56725;DHT22;42608;52.776;6.968;2024-03-02T07:27:06;7.30;99.90
56725;DHT22;42608;52.776;6.968;2024-03-02T07:29:32;7.30;99.90
56725;DHT22;42608;52.776;6.968;2024-03-02T07:32:00;7.40;99.90
56725;DHT22;42608;52.776;6.968;2024-03-02T07:34:28;7.30;99.90
56725;DHT22;42608;52.776;6.968;2024-03-02T07:36:53;7.30;99.90
56725;DHT22;42608;52.776;6.968;2024-03-02T07:39:19;7.40;99.90
56725;DHT22;42608;52.776;6.968;2024-03-02T07:41:45;7.40;99.90
56725;DHT22;42608;52.776;6.968;2024-03-02T07:44:11;7.40;99.90
56725;DHT22;42608;52.776;6.968;2024-03-02T07:46:42;7.40;99.90
56725;DHT22;42608;52.776;6.968;2024-03-02T07:49:08;7.40;99.90
56725;DHT22;42608;52.776;6.968;2024-03-02T07:51:34;7.50;99.90
56725;DHT22;42608;52.776;6.968;2024-03-02T07:53:59;7.50;99.90
56725;DHT22;42608;52.776;6.968;2024-03-02T07:56:25;7.50;99.90
56725;DHT22;42608;52.776;6.968;2024-03-02T07:58:51;7.50;99.90
56725;DHT22;42608;52.776;6.968;2024-03-02T08:01:16;7.50;99.90
56725;DHT22;42608;52.776;6.968;2024-03-02T08:03:43;7.50;99.90
56725;DHT22;42608;52.776;6.968;2024-03-02T08:06:16;7.60;99.90
56725;DHT22;42608;52.776;6.968;2024-03-02T08:08:42;7.60;99.90
56725;DHT22;42608;52.776;6.968;2024-03-02T08:11:08;7.60;99.90
56725;DHT22;42608;52.776;6.968;2024-03-02T08:13:34;7.60;99.90
56725;DHT22;42608;52.776;6.968;2024-03-02T08:16:02;7.60;99.90
56725;DHT22;42608;52.776;6.968;2024-03-02T08:18:28;7.70;99.90
56725;DHT22;42608;52.776;6.968;2024-03-02T08:20:54;7.70;99.90
56725;DHT22;42608;52.776;6.968;2024-03-02T08:23:20;7.80;99.90
56725;DHT22;42608;52.776;6.968;2024-03-02T08:25:45;7.80;99.90
56725;DHT22;42608;52.776;6.968;2024-03-02T08:28:11;7.90;99.90
56725;DHT22;42608;52.776;6.968;2024-03-02T08:30:36;7.90;99.90
56725;DHT22;42608;52.776;6.968;2024-03-02T08:33:02;7.90;99.90
56725;DHT22;42608;52.776;6.968;2024-03-02T08:35:27;8.00;99.90
56725;DHT22;42608;52.776;6.968;2024-03-02T08:37:56;8.00;99.90
56725;DHT22;42608;52.776;6.968;2024-03-02T08:40:21;8.10;99.90
56725;DHT22;42608;52.776;6.968;2024-03-02T08:42:47;8.10;99.90
56725;DHT22;42608;52.776;6.968;2024-03-02T08:45:13;8.20;99.90
56725;DHT22;42608;52.776;6.968;2024-03-02T08:47:38;8.20;99.90
56725;DHT22;42608;52.776;6.968;2024-03-02T08:50:04;8.20;99.90
56725;DHT22;42608;52.776;6.968;2024-03-02T08:52:30;8.30;99.90
56725;DHT22;42608;52.776;6.968;2024-03-02T08:54:55;8.30;99.90
56725;DHT22;42608;52.776;6.968;2024-03-02T08:57:21;8.30;99.90
56725;DHT22;42608;52.776;6.968;2024-03-02T08:59:47;8.40;99.90
56725;DHT22;42608;52.776;6.968;2024-03-02T09:02:12;8.40;99.90
56725;DHT22;42608;52.776;6.968;2024-03-02T09:04:38;8.40;99.90
56725;DHT22;42608;52.776;6.968;2024-03-02T09:07:03;8.40;99.90
56725;DHT22;42608;52.776;6.968;2024-03-02T09:09:29;8.50;99.90
56725;DHT22;42608;52.776;6.968;2024-03-02T09:11:57;8.50;99.90
56725;DHT22;42608;52.776;6.968;2024-03-02T09:14:26;8.50;99.90
56725;DHT22;42608;52.776;6.968;2024-03-02T09:16:51;8.50;99.90
56725;DHT22;42608;52.776;6.968;2024-03-02T09:19:17;8.60;99.90
56725;DHT22;42608;52.776;6.968;2024-03-02T09:21:44;8.70;99.90
56725;DHT22;42608;52.776;6.968;2024-03-02T09:24:09;8.80;99.90
56725;DHT22;42608;52.776;6.968;2024-03-02T09:26:38;8.80;99.90
56725;DHT22;42608;52.776;6.968;2024-03-02T09:29:04;8.90;99.90
56725;DHT22;42608;52.776;6.968;2024-03-02T09:31:32;9.00;99.90
56725;DHT22;42608;52.776;6.968;2024-03-02T09:33:58;9.00;99.90
56725;DHT22;42608;52.776;6.968;2024-03-02T09:36:23;9.10;99.90
56725;DHT22;42608;52.776;6.968;2024-03-02T09:38:49;9.10;99.90
56725;DHT22;42608;52.776;6.968;2024-03-02T09:41:15;9.20;99.90
56725;DHT22;42608;52.776;6.968;2024-03-02T09:43:40;9.20;99.90
56725;DHT22;42608;52.776;6.968;2024-03-02T09:46:07;9.30;99.90
56725;DHT22;42608;52.776;6.968;2024-03-02T09:48:34;9.30;99.90
56725;DHT22;42608;52.776;6.968;2024-03-02T09:51:00;9.30;99.90
56725;DHT22;42608;52.776;6.968;2024-03-02T09:53:27;9.40;99.90
56725;DHT22;42608;52.776;6.968;2024-03-02T09:55:56;9.50;99.90
56725;DHT22;42608;52.776;6.968;2024-03-02T09:58:21;9.50;99.90
56725;DHT22;42608;52.776;6.968;2024-03-02T10:00:47;9.50;99.90
56725;DHT22;42608;52.776;6.968;2024-03-02T10:03:15;9.50;99.90
56725;DHT22;42608;52.776;6.968;2024-03-02T10:05:43;9.50;99.90
56725;DHT22;42608;52.776;6.968;2024-03-02T10:08:08;9.50;99.90
56725;DHT22;42608;52.776;6.968;2024-03-02T10:10:35;9.50;99.90
56725;DHT22;42608;52.776;6.968;2024-03-02T10:13:04;9.50;99.90
56725;DHT22;42608;52.776;6.968;2024-03-02T10:15:30;9.60;99.90
56725;DHT22;42608;52.776;6.968;2024-03-02T10:17:56;9.60;99.90
56725;DHT22;42608;52.776;6.968;2024-03-02T10:20:32;9.60;99.90
56725;DHT22;42608;52.776;6.968;2024-03-02T10:23:09;9.60;99.90
56725;DHT22;42608;52.776;6.968;2024-03-02T10:25:34;9.70;99.90
56725;DHT22;42608;52.776;6.968;2024-03-02T10:28:00;9.70;99.90
56725;DHT22;42608;52.776;6.968;2024-03-02T10:30:29;9.70;99.90
56725;DHT22;42608;52.776;6.968;2024-03-02T10:32:55;9.70;99.90
56725;DHT22;42608;52.776;6.968;2024-03-02T10:35:21;9.80;99.90
56725;DHT22;42608;52.776;6.968;2024-03-02T10:37:47;9.80;99.90
56725;DHT22;42608;52.776;6.968;2024-03-02T10:40:13;9.90;99.90
56725;DHT22;42608;52.776;6.968;2024-03-02T10:42:39;9.90;99.90
56725;DHT22;42608;52.776;6.968;2024-03-02T10:45:06;10.00;99.90
56725;DHT22;42608;52.776;6.968;2024-03-02T10:47:33;10.10;99.90
56725;DHT22;42608;52.776;6.968;2024-03-02T10:50:04;10.10;99.90
56725;DHT22;42608;52.776;6.968;2024-03-02T10:52:34;10.10;99.90
56725;DHT22;42608;52.776;6.968;2024-03-02T10:55:00;10.20;99.90
56725;DHT22;42608;52.776;6.968;2024-03-02T10:57:25;10.20;99.90
56725;DHT22;42608;52.776;6.968;2024-03-02T10:59:52;10.30;99.90
56725;DHT22;42608;52.776;6.968;2024-03-02T11:02:21;10.40;99.90
56725;DHT22;42608;52.776;6.968;2024-03-02T11:04:47;10.40;99.90
56725;DHT22;42608;52.776;6.968;2024-03-02T11:07:17;10.40;99.90
56725;DHT22;42608;52.776;6.968;2024-03-02T11:09:57;10.40;99.90
56725;DHT22;42608;52.776;6.968;2024-03-02T11:12:42;10.40;99.90
56725;DHT22;42608;52.776;6.968;2024-03-02T11:15:10;10.40;99.90
56725;DHT22;42608;52.776;6.968;2024-03-02T11:17:38;10.40;99.90
56725;DHT22;42608;52.776;6.968;2024-03-02T11:20:05;10.40;99.90
56725;DHT22;42608;52.776;6.968;2024-03-02T11:22:34;10.40;99.90
56725;DHT22;42608;52.776;6.968;2024-03-02T11:25:00;10.40;99.90
56725;DHT22;42608;52.776;6.968;2024-03-02T11:30:15;10.40;99.90
56725;DHT22;42608;52.776;6.968;2024-03-02T11:32:55;10.50;99.90
56725;DHT22;42608;52.776;6.968;2024-03-02T11:35:21;10.60;99.90
56725;DHT22;42608;52.776;6.968;2024-03-02T11:37:47;10.70;99.90
56725;DHT22;42608;52.776;6.968;2024-03-02T11:40:13;10.70;99.90
56725;DHT22;42608;52.776;6.968;2024-03-02T11:42:38;10.70;99.90
56725;DHT22;42608;52.776;6.968;2024-03-02T11:45:04;10.70;99.90
56725;DHT22;42608;52.776;6.968;2024-03-02T11:47:31;10.70;99.90
56725;DHT22;42608;52.776;6.968;2024-03-02T11:49:59;10.70;99.90
56725;DHT22;42608;52.776;6.968;2024-03-02T11:52:25;10.80;99.90
56725;DHT22;42608;52.776;6.968;2024-03-02T11:54:51;10.80;99.90
56725;DHT22;42608;52.776;6.968;2024-03-02T11:57:26;10.80;99.90
56725;DHT22;42608;52.776;6.968;2024-03-02T11:59:53;10.90;99.90
56725;DHT22;42608;52.776;6.968;2024-03-02T12:02:19;11.00;99.90
56725;DHT22;42608;52.776;6.968;2024-03-02T12:04:45;11.00;99.90
56725;DHT22;42608;52.776;6.968;2024-03-02T12:07:11;11.00;99.90
56725;DHT22;42608;52.776;6.968;2024-03-02T12:09:38;11.00;99.90
56725;DHT22;42608;52.776;6.968;2024-03-02T12:12:07;11.20;99.90
56725;DHT22;42608;52.776;6.968;2024-03-02T12:14:34;11.20;99.90
56725;DHT22;42608;52.776;6.968;2024-03-02T12:17:00;11.30;99.90
56725;DHT22;42608;52.776;6.968;2024-03-02T12:19:26;11.30;99.90
56725;DHT22;42608;52.776;6.968;2024-03-02T12:21:52;11.30;99.90
56725;DHT22;42608;52.776;6.968;2024-03-02T12:24:21;11.30;99.90
56725;DHT22;42608;52.776;6.968;2024-03-02T12:26:48;11.40;99.90
56725;DHT22;42608;52.776;6.968;2024-03-02T12:29:14;11.50;99.90
56725;DHT22;42608;52.776;6.968;2024-03-02T12:31:41;11.60;99.90
56725;DHT22;42608;52.776;6.968;2024-03-02T12:34:07;11.50;99.90
56725;DHT22;42608;52.776;6.968;2024-03-02T12:36:37;11.60;99.90
56725;DHT22;42608;52.776;6.968;2024-03-02T12:39:03;11.60;99.90
56725;DHT22;42608;52.776;6.968;2024-03-02T12:41:28;11.60;99.90
56725;DHT22;42608;52.776;6.968;2024-03-02T12:43:54;11.70;99.90
56725;DHT22;42608;52.776;6.968;2024-03-02T12:46:20;11.70;99.90
56725;DHT22;42608;52.776;6.968;2024-03-02T12:48:45;11.70;99.90
56725;DHT22;42608;52.776;6.968;2024-03-02T12:51:11;11.70;99.90
56725;DHT22;42608;52.776;6.968;2024-03-02T12:53:37;11.80;99.90
56725;DHT22;42608;52.776;6.968;2024-03-02T12:56:02;11.90;99.90
56725;DHT22;42608;52.776;6.968;2024-03-02T12:58:29;11.90;99.90
56725;DHT22;42608;52.776;6.968;2024-03-02T13:01:08;11.90;99.90
56725;DHT22;42608;52.776;6.968;2024-03-02T13:03:35;12.00;99.90
56725;DHT22;42608;52.776;6.968;2024-03-02T13:06:00;12.10;99.90
56725;DHT22;42608;52.776;6.968;2024-03-02T13:08:26;12.10;99.90
56725;DHT22;42608;52.776;6.968;2024-03-02T13:10:52;12.20;99.90
56725;DHT22;42608;52.776;6.968;2024-03-02T13:13:18;12.30;99.90
56725;DHT22;42608;52.776;6.968;2024-03-02T13:15:43;12.40;99.90
56725;DHT22;42608;52.776;6.968;2024-03-02T13:18:09;12.50;99.90
56725;DHT22;42608;52.776;6.968;2024-03-02T13:20:35;12.50;99.90
56725;DHT22;42608;52.776;6.968;2024-03-02T13:23:01;12.60;99.90
56725;DHT22;42608;52.776;6.968;2024-03-02T13:25:26;12.60;99.90
56725;DHT22;42608;52.776;6.968;2024-03-02T13:27:52;12.60;99.90
56725;DHT22;42608;52.776;6.968;2024-03-02T13:30:18;12.70;99.90
56725;DHT22;42608;52.776;6.968;2024-03-02T13:32:43;12.70;99.90
56725;DHT22;42608;52.776;6.968;2024-03-02T13:35:09;12.80;99.90
56725;DHT22;42608;52.776;6.968;2024-03-02T13:37:36;12.80;99.90
56725;DHT22;42608;52.776;6.968;2024-03-02T13:40:02;12.90;99.90
56725;DHT22;42608;52.776;6.968;2024-03-02T13:42:29;12.90;99.90
56725;DHT22;42608;52.776;6.968;2024-03-02T13:44:55;13.00;99.90
56725;DHT22;42608;52.776;6.968;2024-03-02T13:47:20;13.00;99.90
56725;DHT22;42608;52.776;6.968;2024-03-02T13:49:46;13.00;99.90
56725;DHT22;42608;52.776;6.968;2024-03-02T13:52:14;13.10;99.90
56725;DHT22;42608;52.776;6.968;2024-03-02T13:54:40;13.10;99.90
56725;DHT22;42608;52.776;6.968;2024-03-02T13:57:07;13.10;99.90
56725;DHT22;42608;52.776;6.968;2024-03-02T13:59:33;13.10;99.90
56725;DHT22;42608;52.776;6.968;2024-03-02T14:01:59;13.10;99.90
56725;DHT22;42608;52.776;6.968;2024-03-02T14:04:25;13.20;99.90
56725;DHT22;42608;52.776;6.968;2024-03-02T14:06:51;13.20;99.90
56725;DHT22;42608;52.776;6.968;2024-03-02T14:09:16;13.20;99.90
56725;DHT22;42608;52.776;6.968;2024-03-02T14:11:42;13.10;99.90
56725;DHT22;42608;52.776;6.968;2024-03-02T14:14:07;13.10;99.90
56725;DHT22;42608;52.776;6.968;2024-03-02T14:16:33;13.20;99.90
56725;DHT22;42608;52.776;6.968;2024-03-02T14:19:04;13.10;99.90
56725;DHT22;42608;52.776;6.968;2024-03-02T14:21:33;13.10;99.90
56725;DHT22;42608;52.776;6.968;2024-03-02T14:24:07;13.10;99.90
56725;DHT22;42608;52.776;6.968;2024-03-02T14:26:33;13.10;99.90
56725;DHT22;42608;52.776;6.968;2024-03-02T14:28:59;13.00;99.90
56725;DHT22;42608;52.776;6.968;2024-03-02T14:31:26;13.10;99.90
56725;DHT22;42608;52.776;6.968;2024-03-02T14:33:52;13.10;99.90
56725;DHT22;42608;52.776;6.968;2024-03-02T14:36:24;13.10;99.90
56725;DHT22;42608;52.776;6.968;2024-03-02T14:38:51;13.10;99.90
56725;DHT22;42608;52.776;6.968;2024-03-02T14:41:16;13.10;99.90
56725;DHT22;42608;52.776;6.968;2024-03-02T14:43:42;13.20;99.90
56725;DHT22;42608;52.776;6.968;2024-03-02T14:46:08;13.10;99.90
56725;DHT22;42608;52.776;6.968;2024-03-02T14:48:34;13.20;99.90
56725;DHT22;42608;52.776;6.968;2024-03-02T14:51:00;13.20;99.90
56725;DHT22;42608;52.776;6.968;2024-03-02T14:53:26;13.20;99.90
56725;DHT22;42608;52.776;6.968;2024-03-02T14:55:52;13.20;99.90
56725;DHT22;42608;52.776;6.968;2024-03-02T14:58:17;13.20;99.90
56725;DHT22;42608;52.776;6.968;2024-03-02T15:00:43;13.20;99.90
56725;DHT22;42608;52.776;6.968;2024-03-02T15:03:08;13.20;99.90
56725;DHT22;42608;52.776;6.968;2024-03-02T15:05:35;13.30;99.90
56725;DHT22;42608;52.776;6.968;2024-03-02T15:08:00;13.30;99.90
56725;DHT22;42608;52.776;6.968;2024-03-02T15:10:32;13.20;99.90
56725;DHT22;42608;52.776;6.968;2024-03-02T15:12:58;13.30;99.90
56725;DHT22;42608;52.776;6.968;2024-03-02T15:15:26;13.30;99.90
56725;DHT22;42608;52.776;6.968;2024-03-02T15:17:52;13.30;99.90
56725;DHT22;42608;52.776;6.968;2024-03-02T15:20:18;13.30;99.90
56725;DHT22;42608;52.776;6.968;2024-03-02T15:22:45;13.30;99.90
56725;DHT22;42608;52.776;6.968;2024-03-02T15:25:11;13.30;99.90
56725;DHT22;42608;52.776;6.968;2024-03-02T15:27:39;13.30;99.90
56725;DHT22;42608;52.776;6.968;2024-03-02T15:30:05;13.30;99.90
56725;DHT22;42608;52.776;6.968;2024-03-02T15:32:31;13.30;99.90
56725;DHT22;42608;52.776;6.968;2024-03-02T15:34:59;13.30;99.90
56725;DHT22;42608;52.776;6.968;2024-03-02T15:37:28;13.30;99.90
56725;DHT22;42608;52.776;6.968;2024-03-02T15:39:56;13.20;99.90
56725;DHT22;42608;52.776;6.968;2024-03-02T15:42:22;13.30;99.90
56725;DHT22;42608;52.776;6.968;2024-03-02T15:44:49;13.30;99.90
56725;DHT22;42608;52.776;6.968;2024-03-02T15:47:14;13.30;99.90